Volcan De Tamasite — ECFE — position and weather

sailwx.info

Track history (hours):
 
Tides and Currents Weather Stations Pressure Air Temp Water Temp Dewpoint Dewpoint Depression Visibility Wind Speed Wind Dir Waves Ship Positions

Volcan De Tamasite

Last reported at 2016-May-29 00:14 UTC. Time now 2016-May-29 03:59 UTC.
Position N 28°28' W 016°15'.

Length 141 m; draft 5.4 m.

Type: Passenger vessel. MMSI: 224093000.

Date/timePositionNaut miles runAvg speedWind from/ knotsBaromVisibWave heightAir tempDewpointWater temp
2016-May-29 00:14N 28°28' W 016°15'0 0.0
2016-May-28 22:33N 28°28' W 016°15'1 0.9
2016-May-28 21:32N 28°29' W 016°14'2220.7
2016-May-28 20:29N 28°21' W 015°51'1920.7
2016-May-28 19:33N 28°14' W 015°31'7 7.3
2016-May-28 18:33N 28°10' W 015°24'4 3.8
2016-May-28 17:33N 28°08' W 015°20'2120.8
2016-May-28 16:33N 28°05' W 014°57'2121.0
2016-May-28 15:33N 28°02' W 014°33'10 6.9
2016-May-28 14:07N 28°03' W 014°22'0 0.0
2016-May-28 13:33N 28°03' W 014°22'9 7.7
2016-May-28 12:23N 28°02' W 014°32'1720.4
2016-May-28 11:33N 28°04' W 014°51'2120.8
2016-May-28 10:33N 28°07' W 015°14'9 8.9
2016-May-28 09:33N 28°10' W 015°24'10 9.8
2016-May-28 08:33N 28°15' W 015°33'2121.1
2016-May-28 07:33N 28°23' W 015°56'1817.4
2016-May-28 06:32N 28°28' W 016°15'0 0.0
2016-May-28 05:33N 28°28' W 016°15'0 0.0
2016-May-28 04:33N 28°28' W 016°15'0 0.0
2016-May-28 03:33N 28°28' W 016°15'0 0.0
2016-May-28 02:30N 28°28' W 016°15'0 0.0
2016-May-28 01:32N 28°28' W 016°15'0 0.0
2016-May-28 00:32N 28°28' W 016°15'0 0.0
2016-May-27 23:33N 28°28' W 016°15'2210.0
2016-May-27 21:22N 28°21' W 015°51'1619.7
2016-May-27 20:33N 28°15' W 015°34'1110.6
2016-May-27 19:34N 28°10' W 015°24'0 0.0
2016-May-27 18:34N 28°10' W 015°24'9 9.1
2016-May-27 17:33N 28°07' W 015°14'2020.3
2016-May-27 16:33N 28°05' W 014°51'2019.9
2016-May-27 15:33N 28°02' W 014°29'6 5.8
2016-May-27 14:30N 28°03' W 014°22'0 0.0
2016-May-27 13:33N 28°03' W 014°22'8 7.6
2016-May-27 12:33N 28°02' W 014°30'2020.4
2016-May-27 11:34N 28°04' W 014°53'2120.7
2016-May-27 10:34N 28°08' W 015°16'7 7.0
2016-May-27 09:33N 28°10' W 015°24'9 8.7
2016-May-27 08:34N 28°14' W 015°32'2121.1
2016-May-27 07:34N 28°22' W 015°54'1917.9
2016-May-27 06:31N 28°28' W 016°15'0 0.0
2016-May-27 05:25N 28°28' W 016°15'0 0.0
2016-May-27 04:32N 28°28' W 016°15'0 0.0
2016-May-27 03:31N 28°28' W 016°15'0 0.0
2016-May-27 02:33N 28°28' W 016°15'0 0.0
2016-May-27 01:33N 28°28' W 016°15'0 0.0
2016-May-27 00:32N 28°28' W 016°15'0 0.0
2016-May-26 23:31N 28°28' W 016°15'11 4.6
2016-May-26 21:10N 28°25' W 016°03'1220.2
2016-May-26 20:33N 28°21' W 015°50'1919.3
2016-May-26 19:33N 28°14' W 015°29'6 6.2
2016-May-26 18:33N 28°10' W 015°24'2 1.9
2016-May-26 17:33N 28°12' W 015°24'2120.6
2016-May-26 16:33N 28°19' W 015°46'2121.0
2016-May-26 15:33N 28°27' W 016°08'17 5.7
2016-May-26 12:33N 28°20' W 015°50'2020.0
2016-May-26 11:33N 28°13' W 015°29'6 5.7
2016-May-26 10:33N 28°10' W 015°24'0 0.0
2016-May-26 09:33N 28°10' W 015°24'8 8.5
2016-May-26 08:33N 28°14' W 015°32'2121.2
2016-May-26 07:33N 28°22' W 015°54'1918.0
2016-May-26 06:30N 28°28' W 016°15'0 0.0
2016-May-26 05:22N 28°28' W 016°15'0 0.0
2016-May-26 04:33N 28°28' W 016°15'0 0.0
2016-May-26 03:27N 28°28' W 016°15'0 0.0
2016-May-26 02:33N 28°28' W 016°15'2310.3
2016-May-26 00:22N 28°21' W 015°51'1720.8
2016-May-25 23:34N 28°15' W 015°33'9 9.4
2016-May-25 22:33N 28°10' W 015°24'0 0.5
2016-May-25 21:33N 28°09' W 015°24'2019.7
2016-May-25 20:33N 28°18' W 015°44'2120.8
2016-May-25 19:33N 28°26' W 016°06'8 5.9
2016-May-25 18:09N 28°28' W 016°15'2 2.9
2016-May-25 17:29N 28°28' W 016°13'1920.6
2016-May-25 16:33N 28°21' W 015°52'2020.2
2016-May-25 15:33N 28°14' W 015°31'7 7.5
2016-May-25 14:33N 28°10' W 015°24'0 0.0
2016-May-25 13:33N 28°10' W 015°24'0 0.0
2016-May-25 12:33N 28°10' W 015°24'0 0.0
2016-May-25 11:33N 28°10' W 015°24'0 0.0
2016-May-25 10:33N 28°10' W 015°24'0 0.0
2016-May-25 09:33N 28°10' W 015°24'1010.4
2016-May-25 08:33N 28°15' W 015°34'2120.9
2016-May-25 07:33N 28°23' W 015°56'1715.4
2016-May-25 06:26N 28°28' W 016°15'0 0.0
2016-May-25 05:16N 28°28' W 016°15'0 0.0
2016-May-25 04:15N 28°28' W 016°15'0 0.0
2016-May-25 03:33N 28°28' W 016°15'0 0.0
2016-May-25 02:24N 28°28' W 016°15'0 0.0
2016-May-25 01:31N 28°28' W 016°15'0 0.0
2016-May-24 23:32N 28°28' W 016°15'0 0.0
2016-May-24 22:24N 28°28' W 016°15'1 1.0
2016-May-24 21:31N 28°29' W 016°14'2320.1
2016-May-24 20:22N 28°21' W 015°49'1620.4
2016-May-24 19:33N 28°14' W 015°32'9 8.6
2016-May-24 18:33N 28°10' W 015°24'1 0.8
2016-May-24 17:33N 28°10' W 015°24'2020.4
2016-May-24 16:33N 28°19' W 015°45'2120.7
2016-May-24 15:33N 28°26' W 016°07'7 7.4
2016-May-24 14:34N 28°28' W 016°15'0 0.0
2016-May-24 13:33N 28°28' W 016°15'0 0.0
2016-May-24 12:32N 28°28' W 016°15'0 0.0
2016-May-24 11:33N 28°28' W 016°15'0 0.0
2016-May-24 10:04N 28°28' W 016°15'0 0.0
2016-May-24 09:33N 28°28' W 016°15'1211.0
2016-May-24 08:26N 28°24' W 016°01'1921.2
2016-May-24 07:33N 28°18' W 015°42'1817.6
2016-May-24 06:33N 28°09' W 015°24'0 0.3
2016-May-24 05:33N 28°10' W 015°24'0 0.0
2016-May-24 04:33N 28°10' W 015°24'0 0.0
2016-May-24 03:33N 28°10' W 015°24'0 0.0
2016-May-24 02:33N 28°10' W 015°24'0 0.0
2016-May-24 01:33N 28°10' W 015°24'0 0.0
2016-May-24 00:33N 28°10' W 015°24'0 0.0
2016-May-23 23:34N 28°10' W 015°24'0 0.0
2016-May-23 22:34N 28°10' W 015°24'1 1.0
2016-May-23 21:34N 28°11' W 015°24'2020.4
2016-May-23 20:34N 28°18' W 015°45'2120.5
2016-May-23 19:33N 28°26' W 016°07'7 7.1
2016-May-23 18:31N 28°28' W 016°15'2311.5
2016-May-23 16:33N 28°21' W 015°50'2020.2
2016-May-23 15:33N 28°13' W 015°29'6 5.9
2016-May-23 14:33N 28°10' W 015°24'0 0.0
2016-May-23 13:34N 28°10' W 015°24'0 0.0
2016-May-23 12:33N 28°10' W 015°24'0 0.0
2016-May-23 11:33N 28°10' W 015°24'0 0.0
2016-May-23 10:33N 28°10' W 015°24'0 0.0
2016-May-23 09:34N 28°10' W 015°24'1111.3
2016-May-23 08:33N 28°15' W 015°35'2020.5
2016-May-23 07:33N 28°23' W 015°57'1716.2
2016-May-23 06:31N 28°28' W 016°15'0 0.0
2016-May-23 05:33N 28°28' W 016°15'0 0.0
2016-May-23 04:27N 28°28' W 016°15'0 0.0
2016-May-23 03:27N 28°28' W 016°15'0 0.0
2016-May-23 02:32N 28°28' W 016°15'0 0.0
2016-May-23 01:30N 28°28' W 016°15'0 0.0
2016-May-23 00:22N 28°28' W 016°15'0 0.0
2016-May-22 23:23N 28°28' W 016°15'0 0.0
2016-May-22 22:33N 28°28' W 016°15'0 0.0
2016-May-22 21:32N 28°28' W 016°15'1411.3
2016-May-22 20:19N 28°24' W 015°60'1621.1
2016-May-22 19:33N 28°18' W 015°43'1919.2
2016-May-22 18:33N 28°09' W 015°23'1 0.7
2016-May-22 17:33N 28°10' W 015°24'1413.8
2016-May-22 16:33N 28°16' W 015°38'2120.7
2016-May-22 15:33N 28°24' W 015°60'1413.9
2016-May-22 14:33N 28°28' W 016°15'0 0.0
2016-May-22 13:33N 28°28' W 016°15'0 0.0
2016-May-22 12:30N 28°28' W 016°15'0 0.0
2016-May-22 11:27N 28°28' W 016°15'0 0.0
2016-May-22 10:26N 28°28' W 016°15'2111.2
2016-May-22 08:33N 28°22' W 015°52'2120.9
2016-May-22 07:33N 28°14' W 015°30'7 6.9
2016-May-22 06:33N 28°10' W 015°24'0 0.0
2016-May-22 05:34N 28°10' W 015°24'0 0.0
2016-May-22 04:34N 28°10' W 015°24'0 0.0
2016-May-22 03:34N 28°10' W 015°24'0 0.0
2016-May-22 02:34N 28°10' W 015°24'0 0.0
2016-May-22 01:34N 28°10' W 015°24'0 0.0
2016-May-22 00:34N 28°10' W 015°24'0 0.0
2016-May-21 23:34N 28°10' W 015°24'0 0.0
2016-May-21 22:33N 28°10' W 015°24'1 1.5
2016-May-21 21:33N 28°11' W 015°23'2120.8
2016-May-21 20:33N 28°19' W 015°45'2220.6
2016-May-21 19:28N 28°27' W 016°09'5 4.9
2016-May-21 18:26N 28°28' W 016°15'0 0.0
2016-May-21 17:24N 28°28' W 016°15'0 0.0
2016-May-21 16:31N 28°28' W 016°15'0 0.0
2016-May-21 15:33N 28°28' W 016°15'0 0.0
2016-May-21 14:28N 28°28' W 016°15'0 0.0
2016-May-21 13:27N 28°28' W 016°15'0 0.0
2016-May-21 12:32N 28°28' W 016°15'0 0.0
2016-May-21 11:32N 28°28' W 016°15'11 4.6
2016-May-21 09:15N 28°25' W 016°03'1420.8
2016-May-21 08:33N 28°20' W 015°48'2120.7
2016-May-21 07:33N 28°12' W 015°26'4 4.0
2016-May-21 06:33N 28°08' W 015°25'0 0.0
2016-May-21 05:33N 28°08' W 015°25'0 0.0
2016-May-21 04:33N 28°08' W 015°25'0 0.0
2016-May-21 03:33N 28°08' W 015°25'0 0.0
2016-May-21 02:33N 28°08' W 015°25'0 0.0
2016-May-21 01:34N 28°08' W 015°25'0 0.0
2016-May-21 00:34N 28°08' W 015°25'0 0.0
2016-May-20 23:34N 28°08' W 015°25'1 1.2
2016-May-20 22:34N 28°07' W 015°24'1716.9
2016-May-20 21:34N 28°17' W 015°40'2020.3
2016-May-20 20:33N 28°24' W 016°01'1210.9
2016-May-20 19:26N 28°28' W 016°15'0 0.2
2016-May-20 18:30N 28°28' W 016°15'1717.7
2016-May-20 17:32N 28°23' W 015°56'2020.6
2016-May-20 16:33N 28°15' W 015°35'1111.3
2016-May-20 15:33N 28°08' W 015°25'0 0.0
2016-May-20 14:33N 28°08' W 015°25'4 4.1
2016-May-20 13:33N 28°09' W 015°20'2120.5
2016-May-20 12:33N 28°19' W 014°60'2120.7
2016-May-20 11:33N 28°28' W 014°39'8 0.8
2016-May-20 01:33N 28°25' W 014°47'2019.7
2016-May-20 00:33N 28°16' W 015°07'1818.3
2016-May-19 23:33N 28°08' W 015°25'1 0.8
2016-May-19 22:33N 28°08' W 015°25'0 0.0
2016-May-19 21:33N 28°08' W 015°25'0 0.0
2016-May-19 20:33N 28°08' W 015°25'0 0.0
2016-May-19 19:33N 28°08' W 015°25'0 0.0
2016-May-19 18:33N 28°08' W 015°25'7 6.8
2016-May-19 17:33N 28°06' W 015°18'2120.7
2016-May-19 16:33N 28°04' W 014°54'2120.8
2016-May-19 15:33N 28°02' W 014°31'8 7.3
2016-May-19 14:27N 28°03' W 014°22'0 0.0
2016-May-19 13:33N 28°03' W 014°22'0 0.0
2016-May-19 12:26N 28°03' W 014°22'0 0.0
2016-May-19 11:16N 28°03' W 014°22'0 0.0
2016-May-19 10:28N 28°03' W 014°22'8 9.0
2016-May-19 09:33N 28°02' W 014°31'2020.0
2016-May-19 08:33N 28°05' W 014°53'2020.1
2016-May-19 07:33N 28°08' W 015°16'7 7.5
2016-May-19 06:33N 28°10' W 015°24'0 0.0
2016-May-19 05:33N 28°10' W 015°24'0 0.0
2016-May-19 04:33N 28°10' W 015°24'0 0.0
2016-May-19 03:33N 28°10' W 015°24'0 0.0
2016-May-19 02:33N 28°10' W 015°24'0 0.0
2016-May-19 01:33N 28°10' W 015°24'0 0.0
2016-May-19 00:33N 28°10' W 015°24'  
Track history (hours):
 
Tides and Currents Weather Stations Pressure Air Temp Water Temp Dewpoint Dewpoint Depression Visibility Wind Speed Wind Dir Waves Ship Positions

Volcan De Tamasite

Last reported at 2016-May-29 00:14 UTC. Time now 2016-May-29 03:59 UTC.
Position N 28°28' W 016°15'.

Length 141 m; draft 5.4 m.

Type: Passenger vessel. MMSI: 224093000.

Date/timePositionNaut miles runAvg speedWind from/ knotsBaromVisibWave heightAir tempDewpointWater temp
2016-May-29 00:14N 28°28' W 016°15'0 0.0
2016-May-28 22:33N 28°28' W 016°15'1 0.9
2016-May-28 21:32N 28°29' W 016°14'2220.7
2016-May-28 20:29N 28°21' W 015°51'1920.7
2016-May-28 19:33N 28°14' W 015°31'7 7.3
2016-May-28 18:33N 28°10' W 015°24'4 3.8
2016-May-28 17:33N 28°08' W 015°20'2120.8
2016-May-28 16:33N 28°05' W 014°57'2121.0
2016-May-28 15:33N 28°02' W 014°33'10 6.9
2016-May-28 14:07N 28°03' W 014°22'0 0.0
2016-May-28 13:33N 28°03' W 014°22'9 7.7
2016-May-28 12:23N 28°02' W 014°32'1720.4
2016-May-28 11:33N 28°04' W 014°51'2120.8
2016-May-28 10:33N 28°07' W 015°14'9 8.9
2016-May-28 09:33N 28°10' W 015°24'10 9.8
2016-May-28 08:33N 28°15' W 015°33'2121.1
2016-May-28 07:33N 28°23' W 015°56'1817.4
2016-May-28 06:32N 28°28' W 016°15'0 0.0
2016-May-28 05:33N 28°28' W 016°15'0 0.0
2016-May-28 04:33N 28°28' W 016°15'0 0.0
2016-May-28 03:33N 28°28' W 016°15'0 0.0
2016-May-28 02:30N 28°28' W 016°15'0 0.0
2016-May-28 01:32N 28°28' W 016°15'0 0.0
2016-May-28 00:32N 28°28' W 016°15'0 0.0
2016-May-27 23:33N 28°28' W 016°15'2210.0
2016-May-27 21:22N 28°21' W 015°51'1619.7
2016-May-27 20:33N 28°15' W 015°34'1110.6
2016-May-27 19:34N 28°10' W 015°24'0 0.0
2016-May-27 18:34N 28°10' W 015°24'9 9.1
2016-May-27 17:33N 28°07' W 015°14'2020.3
2016-May-27 16:33N 28°05' W 014°51'2019.9
2016-May-27 15:33N 28°02' W 014°29'6 5.8
2016-May-27 14:30N 28°03' W 014°22'0 0.0
2016-May-27 13:33N 28°03' W 014°22'8 7.6
2016-May-27 12:33N 28°02' W 014°30'2020.4
2016-May-27 11:34N 28°04' W 014°53'2120.7
2016-May-27 10:34N 28°08' W 015°16'7 7.0
2016-May-27 09:33N 28°10' W 015°24'9 8.7
2016-May-27 08:34N 28°14' W 015°32'2121.1
2016-May-27 07:34N 28°22' W 015°54'1917.9
2016-May-27 06:31N 28°28' W 016°15'0 0.0
2016-May-27 05:25N 28°28' W 016°15'0 0.0
2016-May-27 04:32N 28°28' W 016°15'0 0.0
2016-May-27 03:31N 28°28' W 016°15'0 0.0
2016-May-27 02:33N 28°28' W 016°15'0 0.0
2016-May-27 01:33N 28°28' W 016°15'0 0.0
2016-May-27 00:32N 28°28' W 016°15'0 0.0
2016-May-26 23:31N 28°28' W 016°15'11 4.6
2016-May-26 21:10N 28°25' W 016°03'1220.2
2016-May-26 20:33N 28°21' W 015°50'1919.3
2016-May-26 19:33N 28°14' W 015°29'6 6.2
2016-May-26 18:33N 28°10' W 015°24'2 1.9
2016-May-26 17:33N 28°12' W 015°24'2120.6
2016-May-26 16:33N 28°19' W 015°46'2121.0
2016-May-26 15:33N 28°27' W 016°08'17 5.7
2016-May-26 12:33N 28°20' W 015°50'2020.0
2016-May-26 11:33N 28°13' W 015°29'6 5.7
2016-May-26 10:33N 28°10' W 015°24'0 0.0
2016-May-26 09:33N 28°10' W 015°24'8 8.5
2016-May-26 08:33N 28°14' W 015°32'2121.2
2016-May-26 07:33N 28°22' W 015°54'1918.0
2016-May-26 06:30N 28°28' W 016°15'0 0.0
2016-May-26 05:22N 28°28' W 016°15'0 0.0
2016-May-26 04:33N 28°28' W 016°15'0 0.0
2016-May-26 03:27N 28°28' W 016°15'0 0.0
2016-May-26 02:33N 28°28' W 016°15'2310.3
2016-May-26 00:22N 28°21' W 015°51'1720.8
2016-May-25 23:34N 28°15' W 015°33'9 9.4
2016-May-25 22:33N 28°10' W 015°24'0 0.5
2016-May-25 21:33N 28°09' W 015°24'2019.7
2016-May-25 20:33N 28°18' W 015°44'2120.8
2016-May-25 19:33N 28°26' W 016°06'8 5.9
2016-May-25 18:09N 28°28' W 016°15'2 2.9
2016-May-25 17:29N 28°28' W 016°13'1920.6
2016-May-25 16:33N 28°21' W 015°52'2020.2
2016-May-25 15:33N 28°14' W 015°31'7 7.5
2016-May-25 14:33N 28°10' W 015°24'0 0.0
2016-May-25 13:33N 28°10' W 015°24'0 0.0
2016-May-25 12:33N 28°10' W 015°24'0 0.0
2016-May-25 11:33N 28°10' W 015°24'0 0.0
2016-May-25 10:33N 28°10' W 015°24'0 0.0
2016-May-25 09:33N 28°10' W 015°24'1010.4
2016-May-25 08:33N 28°15' W 015°34'2120.9
2016-May-25 07:33N 28°23' W 015°56'1715.4
2016-May-25 06:26N 28°28' W 016°15'0 0.0
2016-May-25 05:16N 28°28' W 016°15'0 0.0
2016-May-25 04:15N 28°28' W 016°15'0 0.0
2016-May-25 03:33N 28°28' W 016°15'0 0.0
2016-May-25 02:24N 28°28' W 016°15'0 0.0
2016-May-25 01:31N 28°28' W 016°15'0 0.0
2016-May-24 23:32N 28°28' W 016°15'0 0.0
2016-May-24 22:24N 28°28' W 016°15'1 1.0
2016-May-24 21:31N 28°29' W 016°14'2320.1
2016-May-24 20:22N 28°21' W 015°49'1620.4
2016-May-24 19:33N 28°14' W 015°32'9 8.6
2016-May-24 18:33N 28°10' W 015°24'1 0.8
2016-May-24 17:33N 28°10' W 015°24'2020.4
2016-May-24 16:33N 28°19' W 015°45'2120.7
2016-May-24 15:33N 28°26' W 016°07'7 7.4
2016-May-24 14:34N 28°28' W 016°15'0 0.0
2016-May-24 13:33N 28°28' W 016°15'0 0.0
2016-May-24 12:32N 28°28' W 016°15'0 0.0
2016-May-24 11:33N 28°28' W 016°15'0 0.0
2016-May-24 10:04N 28°28' W 016°15'0 0.0
2016-May-24 09:33N 28°28' W 016°15'1211.0
2016-May-24 08:26N 28°24' W 016°01'1921.2
2016-May-24 07:33N 28°18' W 015°42'1817.6
2016-May-24 06:33N 28°09' W 015°24'0 0.3
2016-May-24 05:33N 28°10' W 015°24'0 0.0
2016-May-24 04:33N 28°10' W 015°24'0 0.0
2016-May-24 03:33N 28°10' W 015°24'0 0.0
2016-May-24 02:33N 28°10' W 015°24'0 0.0
2016-May-24 01:33N 28°10' W 015°24'0 0.0
2016-May-24 00:33N 28°10' W 015°24'0 0.0
2016-May-23 23:34N 28°10' W 015°24'0 0.0
2016-May-23 22:34N 28°10' W 015°24'1 1.0
2016-May-23 21:34N 28°11' W 015°24'2020.4
2016-May-23 20:34N 28°18' W 015°45'2120.5
2016-May-23 19:33N 28°26' W 016°07'7 7.1
2016-May-23 18:31N 28°28' W 016°15'2311.5
2016-May-23 16:33N 28°21' W 015°50'2020.2
2016-May-23 15:33N 28°13' W 015°29'6 5.9
2016-May-23 14:33N 28°10' W 015°24'0 0.0
2016-May-23 13:34N 28°10' W 015°24'0 0.0
2016-May-23 12:33N 28°10' W 015°24'0 0.0
2016-May-23 11:33N 28°10' W 015°24'0 0.0
2016-May-23 10:33N 28°10' W 015°24'0 0.0
2016-May-23 09:34N 28°10' W 015°24'1111.3
2016-May-23 08:33N 28°15' W 015°35'2020.5
2016-May-23 07:33N 28°23' W 015°57'1716.2
2016-May-23 06:31N 28°28' W 016°15'0 0.0
2016-May-23 05:33N 28°28' W 016°15'0 0.0
2016-May-23 04:27N 28°28' W 016°15'0 0.0
2016-May-23 03:27N 28°28' W 016°15'0 0.0
2016-May-23 02:32N 28°28' W 016°15'0 0.0
2016-May-23 01:30N 28°28' W 016°15'0 0.0
2016-May-23 00:22N 28°28' W 016°15'0 0.0
2016-May-22 23:23N 28°28' W 016°15'0 0.0
2016-May-22 22:33N 28°28' W 016°15'0 0.0
2016-May-22 21:32N 28°28' W 016°15'1411.3
2016-May-22 20:19N 28°24' W 015°60'1621.1
2016-May-22 19:33N 28°18' W 015°43'1919.2
2016-May-22 18:33N 28°09' W 015°23'1 0.7
2016-May-22 17:33N 28°10' W 015°24'1413.8
2016-May-22 16:33N 28°16' W 015°38'2120.7
2016-May-22 15:33N 28°24' W 015°60'1413.9
2016-May-22 14:33N 28°28' W 016°15'0 0.0
2016-May-22 13:33N 28°28' W 016°15'0 0.0
2016-May-22 12:30N 28°28' W 016°15'0 0.0
2016-May-22 11:27N 28°28' W 016°15'0 0.0
2016-May-22 10:26N 28°28' W 016°15'2111.2
2016-May-22 08:33N 28°22' W 015°52'2120.9
2016-May-22 07:33N 28°14' W 015°30'7 6.9
2016-May-22 06:33N 28°10' W 015°24'0 0.0
2016-May-22 05:34N 28°10' W 015°24'0 0.0
2016-May-22 04:34N 28°10' W 015°24'0 0.0
2016-May-22 03:34N 28°10' W 015°24'0 0.0
2016-May-22 02:34N 28°10' W 015°24'0 0.0
2016-May-22 01:34N 28°10' W 015°24'0 0.0
2016-May-22 00:34N 28°10' W 015°24'0 0.0
2016-May-21 23:34N 28°10' W 015°24'0 0.0
2016-May-21 22:33N 28°10' W 015°24'1 1.5
2016-May-21 21:33N 28°11' W 015°23'2120.8
2016-May-21 20:33N 28°19' W 015°45'2220.6
2016-May-21 19:28N 28°27' W 016°09'5 4.9
2016-May-21 18:26N 28°28' W 016°15'0 0.0
2016-May-21 17:24N 28°28' W 016°15'0 0.0
2016-May-21 16:31N 28°28' W 016°15'0 0.0
2016-May-21 15:33N 28°28' W 016°15'0 0.0
2016-May-21 14:28N 28°28' W 016°15'0 0.0
2016-May-21 13:27N 28°28' W 016°15'0 0.0
2016-May-21 12:32N 28°28' W 016°15'0 0.0
2016-May-21 11:32N 28°28' W 016°15'11 4.6
2016-May-21 09:15N 28°25' W 016°03'1420.8
2016-May-21 08:33N 28°20' W 015°48'2120.7
2016-May-21 07:33N 28°12' W 015°26'4 4.0
2016-May-21 06:33N 28°08' W 015°25'0 0.0
2016-May-21 05:33N 28°08' W 015°25'0 0.0
2016-May-21 04:33N 28°08' W 015°25'0 0.0
2016-May-21 03:33N 28°08' W 015°25'0 0.0
2016-May-21 02:33N 28°08' W 015°25'0 0.0
2016-May-21 01:34N 28°08' W 015°25'0 0.0
2016-May-21 00:34N 28°08' W 015°25'0 0.0
2016-May-20 23:34N 28°08' W 015°25'1 1.2
2016-May-20 22:34N 28°07' W 015°24'1716.9
2016-May-20 21:34N 28°17' W 015°40'2020.3
2016-May-20 20:33N 28°24' W 016°01'1210.9
2016-May-20 19:26N 28°28' W 016°15'0 0.2
2016-May-20 18:30N 28°28' W 016°15'1717.7
2016-May-20 17:32N 28°23' W 015°56'2020.6
2016-May-20 16:33N 28°15' W 015°35'1111.3
2016-May-20 15:33N 28°08' W 015°25'0 0.0
2016-May-20 14:33N 28°08' W 015°25'4 4.1
2016-May-20 13:33N 28°09' W 015°20'2120.5
2016-May-20 12:33N 28°19' W 014°60'2120.7
2016-May-20 11:33N 28°28' W 014°39'8 0.8
2016-May-20 01:33N 28°25' W 014°47'2019.7
2016-May-20 00:33N 28°16' W 015°07'1818.3
2016-May-19 23:33N 28°08' W 015°25'1 0.8
2016-May-19 22:33N 28°08' W 015°25'0 0.0
2016-May-19 21:33N 28°08' W 015°25'0 0.0
2016-May-19 20:33N 28°08' W 015°25'0 0.0
2016-May-19 19:33N 28°08' W 015°25'0 0.0
2016-May-19 18:33N 28°08' W 015°25'7 6.8
2016-May-19 17:33N 28°06' W 015°18'2120.7
2016-May-19 16:33N 28°04' W 014°54'2120.8
2016-May-19 15:33N 28°02' W 014°31'8 7.3
2016-May-19 14:27N 28°03' W 014°22'0 0.0
2016-May-19 13:33N 28°03' W 014°22'0 0.0
2016-May-19 12:26N 28°03' W 014°22'0 0.0
2016-May-19 11:16N 28°03' W 014°22'0 0.0
2016-May-19 10:28N 28°03' W 014°22'8 9.0
2016-May-19 09:33N 28°02' W 014°31'2020.0
2016-May-19 08:33N 28°05' W 014°53'2020.1
2016-May-19 07:33N 28°08' W 015°16'7 7.5
2016-May-19 06:33N 28°10' W 015°24'0 0.0
2016-May-19 05:33N 28°10' W 015°24'0 0.0
2016-May-19 04:33N 28°10' W 015°24'0 0.0
2016-May-19 03:33N 28°10' W 015°24'0 0.0
2016-May-19 02:33N 28°10' W 015°24'0 0.0
2016-May-19 01:33N 28°10' W 015°24'0 0.0
2016-May-19 00:33N 28°10' W 015°24'  

Dump ship's entire track history